createdAt,value
2022-10-15T05:34:50.410Z,1.00
2022-10-15T05:37:17.013Z,0.90
2022-10-15T05:39:43.633Z,1.10
2022-10-15T05:42:10.303Z,0.73
2022-10-15T05:47:22.797Z,0.67
2022-10-15T05:49:49.490Z,0.80
2022-10-15T05:52:16.863Z,0.67
2022-10-15T05:54:43.473Z,0.63
2022-10-15T05:57:10.069Z,0.40
2022-10-15T05:59:36.697Z,0.70
2022-10-15T06:02:03.423Z,0.63
2022-10-15T06:04:34.766Z,0.90
2022-10-15T06:07:02.555Z,0.80
2022-10-15T06:09:29.190Z,0.83
2022-10-15T06:11:55.768Z,0.80
2022-10-15T06:14:22.429Z,0.60
2022-10-15T06:16:50.663Z,0.70
2022-10-15T06:19:17.350Z,0.77
2022-10-15T06:21:43.974Z,0.67
2022-10-15T06:24:10.633Z,0.70
2022-10-15T06:26:37.338Z,0.80
2022-10-15T06:29:04.081Z,0.60
2022-10-15T06:31:31.493Z,0.60
2022-10-15T06:33:58.126Z,0.40
2022-10-15T06:36:25.784Z,0.50
2022-10-15T06:38:52.386Z,0.50
2022-10-15T06:41:18.961Z,0.37
2022-10-15T06:43:48.285Z,0.50
2022-10-15T06:46:14.929Z,0.40
2022-10-15T06:48:41.732Z,0.57
2022-10-15T06:51:08.327Z,0.50
2022-10-15T06:53:35.052Z,0.50
2022-10-15T06:56:02.364Z,0.60
2022-10-15T06:58:29.006Z,0.83
2022-10-15T07:01:05.844Z,0.60
2022-10-15T07:03:32.646Z,0.90
2022-10-15T07:06:03.655Z,0.60
2022-10-15T07:08:30.315Z,0.50
2022-10-15T07:10:56.993Z,0.50
2022-10-15T07:13:23.806Z,0.60
2022-10-15T07:15:53.837Z,0.60
2022-10-15T07:18:20.625Z,0.50
2022-10-15T07:20:47.227Z,0.60
2022-10-15T07:23:13.895Z,0.60
2022-10-15T07:25:40.531Z,0.70
2022-10-15T07:28:07.202Z,0.50
2022-10-15T07:30:34.027Z,0.47
2022-10-15T07:33:00.656Z,0.50
2022-10-15T07:35:27.476Z,0.57
2022-10-15T07:37:54.524Z,0.40
2022-10-15T07:40:21.293Z,0.60
2022-10-15T07:42:55.357Z,0.57
2022-10-15T07:45:22.014Z,0.80
2022-10-15T07:47:48.751Z,0.40
2022-10-15T07:50:15.509Z,0.70
2022-10-15T07:52:42.222Z,0.60
2022-10-15T07:55:09.081Z,0.50
2022-10-15T07:57:35.678Z,0.50
2022-10-15T08:00:02.307Z,0.40
2022-10-15T08:02:28.883Z,0.40
2022-10-15T08:04:55.480Z,0.40
2022-10-15T08:07:22.052Z,0.40
2022-10-15T08:09:48.828Z,0.23
2022-10-15T08:12:15.434Z,0.40
2022-10-15T08:14:42.042Z,0.37
2022-10-15T08:17:08.632Z,0.40
2022-10-15T08:19:35.229Z,0.20
2022-10-15T08:22:01.842Z,0.40
2022-10-15T08:24:30.107Z,0.30
2022-10-15T08:26:58.324Z,0.30
2022-10-15T08:29:25.109Z,0.70
2022-10-15T08:31:51.808Z,0.30
2022-10-15T08:34:18.511Z,0.20
2022-10-15T08:36:45.214Z,0.30
2022-10-15T08:39:11.960Z,0.27
2022-10-15T08:41:50.074Z,0.30
2022-10-15T08:44:26.061Z,0.30
2022-10-15T08:46:59.529Z,0.37
2022-10-15T08:49:47.169Z,0.47
2022-10-15T08:52:35.318Z,0.30
2022-10-15T08:55:01.959Z,0.20
2022-10-15T08:57:59.573Z,0.30
2022-10-15T09:00:54.046Z,0.20
2022-10-15T09:03:51.556Z,0.40
2022-10-15T09:06:25.967Z,0.40
2022-10-15T09:09:01.454Z,0.10
2022-10-15T09:11:40.583Z,0.30
2022-10-15T09:14:09.738Z,0.20
2022-10-15T09:16:37.934Z,0.30
2022-10-15T09:19:06.059Z,0.30
2022-10-15T09:21:32.673Z,0.10
2022-10-15T09:24:01.670Z,0.30
2022-10-15T09:26:35.645Z,0.30
2022-10-15T09:29:27.402Z,0.20
2022-10-15T09:32:03.512Z,0.30
2022-10-15T09:34:37.741Z,0.30
2022-10-15T09:37:29.782Z,0.30
2022-10-15T09:40:24.986Z,0.28
2022-10-15T09:42:51.626Z,0.30
2022-10-15T09:45:18.374Z,0.30
2022-10-15T09:47:44.978Z,0.20
2022-10-15T09:50:13.420Z,0.25
2022-10-15T09:52:53.454Z,0.22
2022-10-15T09:55:44.919Z,0.20
2022-10-15T09:58:15.770Z,0.40
2022-10-15T10:00:51.499Z,0.30
2022-10-15T10:03:18.152Z,0.20
2022-10-15T10:05:45.706Z,0.30
2022-10-15T10:08:22.981Z,0.35
2022-10-15T10:10:57.026Z,0.25
2022-10-15T10:13:30.683Z,0.40
2022-10-15T10:16:01.287Z,0.25
2022-10-15T10:18:28.181Z,0.20
2022-10-15T10:20:59.762Z,0.22
2022-10-15T10:23:34.989Z,0.73
2022-10-15T10:26:09.261Z,0.30
2022-10-15T10:29:04.861Z,0.20
2022-10-15T10:31:42.586Z,0.30
2022-10-15T10:34:14.116Z,0.30
2022-10-15T10:36:44.066Z,0.30
2022-10-15T10:39:13.201Z,0.30
2022-10-15T10:42:06.889Z,0.30
2022-10-15T10:44:37.741Z,0.25
2022-10-15T10:47:14.386Z,0.40
2022-10-15T10:49:53.708Z,0.20
2022-10-15T10:52:36.458Z,0.35
2022-10-15T10:55:06.205Z,0.20
2022-10-15T10:57:38.101Z,0.25
2022-10-15T11:00:05.231Z,0.20
2022-10-15T11:02:33.274Z,0.30
2022-10-15T11:04:59.879Z,0.20
2022-10-15T11:07:31.369Z,0.25
2022-10-15T11:10:01.540Z,0.20
2022-10-15T11:13:12.527Z,0.13
2022-10-15T11:15:57.817Z,0.10
2022-10-15T11:18:36.074Z,0.10
2022-10-15T11:21:15.543Z,0.10
2022-10-15T11:23:54.922Z,0.20
2022-10-15T11:26:59.275Z,0.10
2022-10-15T11:29:56.951Z,0.20
2022-10-15T11:32:28.344Z,0.10
2022-10-15T11:35:24.077Z,0.30
2022-10-15T11:38:17.487Z,0.10
2022-10-15T11:41:03.034Z,0.22
2022-10-15T11:43:58.244Z,0.20
2022-10-15T11:46:56.698Z,0.20
2022-10-15T11:50:11.518Z,0.10
2022-10-15T11:52:54.790Z,0.20
2022-10-15T11:55:45.926Z,0.20
2022-10-15T11:58:34.104Z,0.25
2022-10-15T12:01:04.785Z,0.30
2022-10-15T12:03:33.442Z,0.13
2022-10-15T12:06:03.718Z,0.20
2022-10-15T12:08:32.891Z,0.20
2022-10-15T12:11:04.609Z,0.20
2022-10-15T12:13:39.833Z,0.13
2022-10-15T12:16:14.903Z,0.20
2022-10-15T12:18:53.028Z,0.35
2022-10-15T12:21:28.604Z,0.30
2022-10-15T12:23:55.202Z,0.20
2022-10-15T12:26:24.909Z,0.30
2022-10-15T12:28:53.332Z,0.20
2022-10-15T12:31:20.738Z,0.30
2022-10-15T12:33:54.412Z,0.30
2022-10-15T12:36:29.014Z,0.30
2022-10-15T12:39:07.851Z,0.28
2022-10-15T12:41:43.918Z,0.10
2022-10-15T12:44:32.961Z,0.20
2022-10-15T12:46:59.688Z,0.30
2022-10-15T12:49:26.584Z,0.20
2022-10-15T12:51:57.085Z,0.25
2022-10-15T12:54:40.700Z,0.10
2022-10-15T12:57:30.662Z,0.40
2022-10-15T12:59:58.481Z,0.20
2022-10-15T13:05:26.943Z,0.30
2022-10-15T13:07:53.558Z,0.20
2022-10-15T13:10:24.516Z,0.20
2022-10-15T13:12:55.319Z,0.20
2022-10-15T13:15:23.765Z,0.20
2022-10-15T13:17:50.461Z,0.30
2022-10-15T13:20:35.227Z,0.20
2022-10-15T13:23:32.805Z,0.20
2022-10-15T13:26:29.975Z,0.30
2022-10-15T13:28:59.787Z,0.20
2022-10-15T13:31:30.450Z,0.30
2022-10-15T13:34:07.987Z,0.28
2022-10-15T13:36:34.804Z,0.20
2022-10-15T13:39:19.947Z,0.30
2022-10-15T13:41:46.577Z,0.25
2022-10-15T13:44:31.418Z,0.20
2022-10-15T13:46:58.005Z,0.22
2022-10-15T13:49:26.585Z,0.40
2022-10-15T13:51:55.463Z,0.30
2022-10-15T13:54:28.408Z,0.20
2022-10-15T13:56:59.242Z,0.30
2022-10-15T13:59:28.078Z,0.30
2022-10-15T14:02:01.313Z,0.30
2022-10-15T14:04:29.262Z,0.30
2022-10-15T14:07:20.913Z,0.20
2022-10-15T14:09:47.532Z,0.25
2022-10-15T14:12:14.720Z,0.20
2022-10-15T14:14:45.046Z,0.30
2022-10-15T14:17:17.214Z,0.30
2022-10-15T14:19:51.436Z,0.30
2022-10-15T14:22:24.785Z,0.32
2022-10-15T14:24:52.368Z,0.20
2022-10-15T14:27:24.063Z,0.28
2022-10-15T14:29:52.650Z,0.30
2022-10-15T14:32:30.304Z,0.20
2022-10-15T14:34:57.800Z,0.30
2022-10-15T14:37:37.053Z,0.30
2022-10-15T14:40:09.973Z,0.22
2022-10-15T14:43:01.316Z,0.40
2022-10-15T14:45:28.899Z,0.35
2022-10-15T14:47:59.858Z,0.30
2022-10-15T14:50:31.659Z,0.30
2022-10-15T14:52:58.296Z,0.40
2022-10-15T14:55:31.501Z,0.40
2022-10-15T14:57:58.085Z,0.30
2022-10-15T15:00:28.349Z,0.40
2022-10-15T15:02:56.689Z,0.30
2022-10-15T15:05:25.184Z,0.50
2022-10-15T15:07:52.059Z,0.30
2022-10-15T15:10:18.741Z,0.30
2022-10-15T15:12:49.267Z,0.30
2022-10-15T15:15:16.889Z,0.25
2022-10-15T15:17:44.310Z,0.35
2022-10-15T15:20:11.409Z,0.40
2022-10-15T15:22:38.127Z,0.70
2022-10-15T15:25:25.013Z,0.60
2022-10-15T15:27:51.591Z,0.40
2022-10-15T15:30:22.740Z,0.50
2022-10-15T15:32:49.449Z,0.57
2022-10-15T15:35:44.479Z,0.40
2022-10-15T15:38:11.699Z,0.40
2022-10-15T15:40:38.332Z,0.50
2022-10-15T15:43:04.950Z,0.50
2022-10-15T15:45:31.624Z,0.57
2022-10-15T15:47:58.636Z,0.60
2022-10-15T15:50:25.333Z,0.73
2022-10-15T15:52:51.918Z,0.50
2022-10-15T15:55:18.622Z,0.73
2022-10-15T15:57:45.341Z,0.63
2022-10-15T16:00:12.530Z,0.80
2022-10-15T16:02:39.525Z,0.93
2022-10-15T16:05:06.930Z,1.10
2022-10-15T16:07:33.937Z,1.00
2022-10-15T16:10:01.314Z,0.90
2022-10-15T16:12:27.935Z,0.93
2022-10-15T16:14:55.758Z,0.73
2022-10-15T16:17:24.139Z,0.70
2022-10-15T16:19:50.934Z,0.77
2022-10-15T16:22:17.566Z,0.70
2022-10-15T16:24:44.229Z,0.70
2022-10-15T16:27:10.830Z,0.70
2022-10-15T16:29:37.436Z,0.33
2022-10-15T16:32:04.419Z,0.63
2022-10-15T16:34:31.313Z,0.50
2022-10-15T16:36:57.902Z,0.70
2022-10-15T16:39:24.556Z,0.63
2022-10-15T16:41:51.170Z,0.73
2022-10-15T16:44:17.765Z,0.50
2022-10-15T16:46:44.703Z,0.80
2022-10-15T16:49:11.371Z,0.67
2022-10-15T16:51:41.247Z,0.77
2022-10-15T16:54:15.249Z,0.80
2022-10-15T16:56:42.039Z,0.70
2022-10-15T16:59:08.734Z,0.80
2022-10-15T17:01:35.893Z,0.70
2022-10-15T17:04:02.579Z,0.70
2022-10-15T17:06:29.892Z,0.90
2022-10-15T17:09:00.879Z,0.53
2022-10-15T17:11:29.164Z,0.50
2022-10-15T17:13:57.937Z,0.40
2022-10-15T17:16:29.203Z,0.53
2022-10-15T17:18:56.143Z,0.60
2022-10-15T17:21:24.871Z,0.60
2022-10-15T17:23:52.355Z,0.60
2022-10-15T17:26:20.966Z,0.40
2022-10-15T17:28:48.322Z,0.50
2022-10-15T17:31:18.008Z,0.50
2022-10-15T17:33:44.723Z,0.40
2022-10-15T17:36:20.257Z,0.57
2022-10-15T17:38:46.861Z,0.60
2022-10-15T17:41:18.121Z,0.60
2022-10-15T17:43:44.881Z,0.57
2022-10-15T17:47:30.568Z,0.77
2022-10-15T17:50:22.526Z,0.90
2022-10-15T17:52:49.169Z,1.10
2022-10-15T17:55:16.830Z,1.00
2022-10-15T17:57:43.521Z,1.00
2022-10-15T18:00:11.409Z,0.80
2022-10-15T18:02:38.073Z,0.70
2022-10-15T18:05:05.192Z,0.80
2022-10-15T18:07:31.847Z,0.63
2022-10-15T18:10:01.135Z,0.70
2022-10-15T18:12:27.739Z,0.67
2022-10-15T18:14:54.390Z,0.50
2022-10-15T18:17:20.975Z,0.50
2022-10-15T18:19:47.586Z,0.40
2022-10-15T18:22:14.184Z,0.60
2022-10-15T18:24:40.946Z,0.60
2022-10-15T18:27:07.633Z,0.70
2022-10-15T18:29:35.906Z,0.60
2022-10-15T18:32:02.935Z,0.70
2022-10-15T18:34:30.309Z,0.60
2022-10-15T18:36:57.343Z,0.70
2022-10-15T18:39:24.304Z,0.60
2022-10-15T18:41:50.922Z,0.70
2022-10-15T18:44:17.846Z,0.70
2022-10-15T18:46:45.355Z,0.80
2022-10-15T18:49:12.458Z,0.60
2022-10-15T18:51:39.104Z,0.70
2022-10-15T18:54:07.670Z,0.80
2022-10-15T18:56:34.289Z,0.60
2022-10-15T18:59:00.907Z,0.70
2022-10-15T19:01:38.919Z,0.60
2022-10-15T19:04:07.090Z,0.73
2022-10-15T19:06:57.025Z,0.90
2022-10-15T19:09:26.084Z,0.67
2022-10-15T19:11:53.897Z,0.70
2022-10-15T19:14:21.069Z,0.80
2022-10-15T19:16:47.923Z,0.63
2022-10-15T19:19:16.416Z,0.40
2022-10-15T19:21:43.794Z,0.60
2022-10-15T19:24:10.499Z,0.40
2022-10-15T19:26:37.092Z,0.50
2022-10-15T19:29:03.823Z,0.50
2022-10-15T19:31:31.995Z,0.50
2022-10-15T19:33:58.838Z,0.40
2022-10-15T19:36:27.388Z,0.40
2022-10-15T19:38:54.043Z,0.40
2022-10-15T19:41:20.643Z,0.40
2022-10-15T19:43:47.258Z,0.30
2022-10-15T19:46:14.165Z,0.33
2022-10-15T19:48:40.816Z,0.43
2022-10-15T19:51:07.463Z,0.50
2022-10-15T19:53:34.415Z,0.40
2022-10-15T19:56:06.122Z,0.50
2022-10-15T19:58:33.171Z,0.40
2022-10-15T20:00:59.897Z,0.50
2022-10-15T20:03:27.414Z,0.60
2022-10-15T20:05:54.073Z,0.50
2022-10-15T20:08:20.739Z,0.63
2022-10-15T20:10:48.645Z,0.50
2022-10-15T20:13:15.410Z,0.60
2022-10-15T20:15:42.893Z,0.60
2022-10-15T20:18:09.584Z,0.47
2022-10-15T20:20:37.060Z,0.40
2022-10-15T20:23:03.729Z,0.53
2022-10-15T20:25:30.331Z,0.50
2022-10-15T20:27:56.983Z,0.50
2022-10-15T20:30:23.590Z,0.43
2022-10-15T20:32:50.240Z,0.60
2022-10-15T20:35:17.839Z,0.50
2022-10-15T20:37:44.481Z,0.37
2022-10-15T20:40:11.243Z,0.50
2022-10-15T20:42:37.862Z,0.60
2022-10-15T20:45:14.271Z,0.60
2022-10-15T20:47:43.681Z,0.77
2022-10-15T20:50:14.882Z,0.70
2022-10-15T20:52:41.595Z,0.67
2022-10-15T20:55:08.823Z,0.57
2022-10-15T20:57:35.410Z,0.67
2022-10-15T21:00:02.030Z,0.50
2022-10-15T21:02:28.718Z,0.60
2022-10-15T21:04:55.397Z,0.50
2022-10-15T21:07:24.438Z,0.57
2022-10-15T21:09:52.112Z,0.70
2022-10-15T21:12:18.768Z,0.60
2022-10-15T21:14:45.667Z,0.70
2022-10-15T21:17:12.476Z,0.60
2022-10-15T21:19:39.086Z,0.70
2022-10-15T21:22:05.672Z,0.60
2022-10-15T21:24:34.340Z,0.60
2022-10-15T21:27:01.585Z,0.70
2022-10-15T21:29:28.201Z,0.67
2022-10-15T21:31:54.936Z,0.63
2022-10-15T21:34:23.016Z,0.57
2022-10-15T21:36:49.593Z,0.50
2022-10-15T21:39:16.364Z,0.50
2022-10-15T21:41:42.984Z,0.50
2022-10-15T21:44:09.608Z,0.80
2022-10-15T21:46:36.230Z,0.40
2022-10-15T21:49:03.923Z,0.60
2022-10-15T21:51:32.136Z,0.67
2022-10-15T21:53:58.893Z,0.50
2022-10-15T21:56:25.494Z,0.60
2022-10-15T21:58:52.313Z,0.50
